createdAt,value
2022-08-23T00:02:23.886Z,4.17
2022-08-23T00:07:28.132Z,4.27
2022-08-23T00:12:31.707Z,4.53
2022-08-23T00:17:34.911Z,4.20
2022-08-23T00:22:38.648Z,3.77
2022-08-23T00:27:40.575Z,4.30
2022-08-23T00:32:43.421Z,3.80
2022-08-23T00:37:45.246Z,3.60
2022-08-23T00:43:38.247Z,4.50
2022-08-23T00:48:40.963Z,4.17
2022-08-23T00:53:56.007Z,4.53
2022-08-23T00:58:58.531Z,3.90
2022-08-23T01:04:04.860Z,4.30
2022-08-23T01:09:12.193Z,4.20
2022-08-23T01:14:24.547Z,4.37
2022-08-23T01:19:32.914Z,3.93
2022-08-23T01:25:06.460Z,4.00
2022-08-23T01:29:58.712Z,4.60
2022-08-23T01:35:00.985Z,4.27
2022-08-23T01:40:04.611Z,4.40
2022-08-23T01:45:08.102Z,4.30
2022-08-23T01:50:12.785Z,4.90
2022-08-23T01:55:14.957Z,5.17
2022-08-23T02:00:18.192Z,5.03
2022-08-23T02:05:20.252Z,5.20
2022-08-23T02:10:23.001Z,4.30
2022-08-23T02:15:26.353Z,4.53
2022-08-23T02:20:28.196Z,5.00
2022-08-23T02:25:30.980Z,4.70
2022-08-23T02:30:34.203Z,4.33
2022-08-23T02:35:38.694Z,4.50
2022-08-23T02:40:41.254Z,4.47
2022-08-23T02:45:43.550Z,4.17
2022-08-23T02:50:46.723Z,4.63
2022-08-23T02:55:48.738Z,4.40
2022-08-23T03:00:51.229Z,4.73
2022-08-23T03:05:56.255Z,4.07
2022-08-23T03:11:23.442Z,4.70
2022-08-23T03:16:28.079Z,5.37
2022-08-23T03:21:30.089Z,4.80
2022-08-23T03:26:35.413Z,5.20
2022-08-23T03:31:37.398Z,4.90
2022-08-23T03:36:44.480Z,4.97
2022-08-23T03:41:47.122Z,4.83
2022-08-23T03:46:50.112Z,5.57
2022-08-23T03:51:52.254Z,4.87
2022-08-23T03:57:00.441Z,4.97
2022-08-23T04:02:06.006Z,4.77
2022-08-23T04:07:08.647Z,5.00
2022-08-23T04:12:17.143Z,4.90
2022-08-23T04:17:21.533Z,5.07
2022-08-23T04:22:24.818Z,6.20
2022-08-23T04:27:26.829Z,5.30
2022-08-23T04:32:30.018Z,5.23
2022-08-23T04:37:37.098Z,5.33
2022-08-23T04:42:40.758Z,5.30
2022-08-23T04:47:44.755Z,5.03
2022-08-23T04:52:47.173Z,5.00
2022-08-23T04:57:49.645Z,4.50
2022-08-23T05:02:57.168Z,4.90
2022-08-23T05:08:00.253Z,4.67
2022-08-23T05:13:02.881Z,5.50
2022-08-23T05:18:05.225Z,5.50
2022-08-23T05:23:08.809Z,5.27
2022-08-23T05:28:20.920Z,5.17
2022-08-23T05:33:23.328Z,5.37
2022-08-23T05:38:26.486Z,5.00
2022-08-23T05:43:36.911Z,6.07
2022-08-23T05:48:39.539Z,5.27
2022-08-23T05:53:44.384Z,5.20
2022-08-23T05:58:47.009Z,4.70
2022-08-23T06:03:49.919Z,5.40
2022-08-23T06:08:52.466Z,5.60
2022-08-23T06:13:56.359Z,5.53
2022-08-23T06:19:02.490Z,5.63
2022-08-23T06:24:23.266Z,5.70
2022-08-23T06:29:41.427Z,4.73
2022-08-23T06:35:38.931Z,3.83
2022-08-23T06:41:00.939Z,4.70
2022-08-23T06:46:19.706Z,4.73
2022-08-23T06:51:30.271Z,5.03
2022-08-23T06:56:53.503Z,4.93
2022-08-23T07:02:01.545Z,4.40
2022-08-23T07:07:24.283Z,4.97
2022-08-23T07:12:42.527Z,4.87
2022-08-23T07:17:45.463Z,4.90
2022-08-23T07:22:47.503Z,4.43
2022-08-23T07:27:49.524Z,4.30
2022-08-23T07:32:54.722Z,4.70
2022-08-23T07:37:58.544Z,4.73
2022-08-23T07:43:10.005Z,4.97
2022-08-23T07:48:14.400Z,5.27
2022-08-23T07:53:43.015Z,5.20
2022-08-23T07:58:50.121Z,4.73
2022-08-23T08:04:14.301Z,4.40
2022-08-23T08:09:20.267Z,4.70
2022-08-23T08:14:23.066Z,4.37
2022-08-23T08:19:29.933Z,4.20
2022-08-23T08:25:07.696Z,4.20
2022-08-23T08:30:13.047Z,4.97
2022-08-23T08:35:15.498Z,4.50
2022-08-23T08:40:25.533Z,4.40
2022-08-23T08:45:35.918Z,3.73
2022-08-23T08:50:41.253Z,4.37
2022-08-23T08:55:53.728Z,4.77
2022-08-23T09:00:56.897Z,4.10
2022-08-23T09:06:08.224Z,4.73
2022-08-23T09:11:22.524Z,4.63
2022-08-23T09:16:54.147Z,4.90
2022-08-23T09:22:00.736Z,4.00
2022-08-23T09:27:04.166Z,5.07
2022-08-23T09:32:26.443Z,4.70
2022-08-23T09:37:28.686Z,4.17
2022-08-23T09:42:35.845Z,4.17
2022-08-23T09:47:44.167Z,4.40
2022-08-23T09:52:48.686Z,4.30
2022-08-23T09:57:52.415Z,3.30
2022-08-23T10:03:16.154Z,4.53
2022-08-23T10:08:29.364Z,5.00
2022-08-23T10:13:34.059Z,3.80
2022-08-23T10:19:00.581Z,3.17
2022-08-23T10:24:28.268Z,3.20
2022-08-23T10:29:43.198Z,3.13
2022-08-23T10:35:02.711Z,3.40
2022-08-23T10:40:16.196Z,3.30
2022-08-23T10:45:21.365Z,2.83
2022-08-23T10:50:23.630Z,2.50
2022-08-23T10:55:43.961Z,2.70
2022-08-23T11:00:46.448Z,2.60
2022-08-23T11:06:08.011Z,2.10
2022-08-23T11:11:37.740Z,2.20
2022-08-23T11:16:43.069Z,2.27
2022-08-23T11:21:46.895Z,2.00
2022-08-23T11:26:51.466Z,2.13
2022-08-23T11:32:13.188Z,2.10
2022-08-23T11:37:23.989Z,2.30
2022-08-23T11:42:38.143Z,2.57
2022-08-23T11:47:44.510Z,2.30
2022-08-23T11:53:06.634Z,2.60
2022-08-23T11:58:23.385Z,2.50
2022-08-23T12:03:35.694Z,2.10
2022-08-23T12:08:58.215Z,2.47
2022-08-23T12:14:21.814Z,2.40
2022-08-23T12:19:39.484Z,2.50
2022-08-23T12:24:52.559Z,2.77
2022-08-23T12:30:10.848Z,2.43
2022-08-23T12:35:37.754Z,2.53
2022-08-23T12:40:50.709Z,2.60
2022-08-23T12:46:00.883Z,3.27
2022-08-23T12:51:08.054Z,2.30
2022-08-23T12:56:20.357Z,2.20
2022-08-23T13:01:30.765Z,2.93
2022-08-23T13:06:46.807Z,2.93
2022-08-23T13:11:49.172Z,2.70
2022-08-23T13:16:51.494Z,2.40
2022-08-23T13:22:29.198Z,2.40
2022-08-23T13:27:38.291Z,2.27
2022-08-23T13:32:41.795Z,2.63
2022-08-23T13:37:46.774Z,2.57
2022-08-23T13:42:52.747Z,2.37
2022-08-23T13:48:08.842Z,2.60
2022-08-23T13:53:14.884Z,2.50
2022-08-23T13:58:26.628Z,2.50
2022-08-23T14:03:31.409Z,2.40
2022-08-23T14:08:33.723Z,2.53
2022-08-23T14:13:36.755Z,2.37
2022-08-23T14:19:15.017Z,2.23
2022-08-23T14:24:01.335Z,2.50
2022-08-23T14:29:04.003Z,1.80
2022-08-23T14:34:07.591Z,2.27
2022-08-23T14:39:12.499Z,1.90
2022-08-23T14:44:17.455Z,2.57
2022-08-23T14:49:20.642Z,2.30
2022-08-23T14:54:25.330Z,1.87
2022-08-23T14:59:27.258Z,2.10
2022-08-23T15:04:34.356Z,2.10
2022-08-23T15:09:37.012Z,1.90
2022-08-23T15:14:39.364Z,1.90
2022-08-23T15:19:41.417Z,1.70
2022-08-23T15:24:43.659Z,2.50
2022-08-23T15:29:45.982Z,1.97
2022-08-23T15:34:48.100Z,2.10
2022-08-23T15:39:50.469Z,2.00
2022-08-23T15:44:52.978Z,1.90
2022-08-23T15:49:58.583Z,1.90
2022-08-23T15:55:00.938Z,1.70
2022-08-23T16:00:04.781Z,2.00
2022-08-23T16:05:14.551Z,1.90
2022-08-23T16:10:16.855Z,1.80
2022-08-23T16:15:18.819Z,2.30
2022-08-23T16:20:20.708Z,2.00
2022-08-23T16:25:23.022Z,2.00
2022-08-23T16:30:25.447Z,1.73
2022-08-23T16:35:27.481Z,1.60
2022-08-23T16:40:29.367Z,2.03
2022-08-23T16:45:31.766Z,1.83
2022-08-23T16:50:34.200Z,2.10
2022-08-23T16:55:36.939Z,1.90
2022-08-23T17:00:39.050Z,1.63
2022-08-23T17:05:41.244Z,1.80
2022-08-23T17:10:44.219Z,2.13
2022-08-23T17:15:46.079Z,3.47
2022-08-23T17:20:48.355Z,2.50
2022-08-23T17:25:50.239Z,2.53
2022-08-23T17:30:52.209Z,2.60
2022-08-23T17:35:54.958Z,3.17
2022-08-23T17:40:57.507Z,2.40
2022-08-23T17:45:59.357Z,2.90
2022-08-23T17:51:01.654Z,6.13
2022-08-23T17:56:05.916Z,2.43
2022-08-23T18:01:12.307Z,3.90
2022-08-23T18:06:16.783Z,3.70
2022-08-23T18:11:19.213Z,4.43
2022-08-23T18:16:21.292Z,5.80
2022-08-23T18:21:24.746Z,7.33
2022-08-23T18:26:48.032Z,6.50
2022-08-23T18:31:50.144Z,4.33
2022-08-23T18:36:53.713Z,4.40
2022-08-23T18:41:56.079Z,4.10
2022-08-23T18:46:58.384Z,4.87
2022-08-23T18:52:00.889Z,3.80
2022-08-23T18:57:03.713Z,3.33
2022-08-23T19:02:05.999Z,3.03
2022-08-23T19:07:08.317Z,3.10
2022-08-23T19:12:10.673Z,2.90
2022-08-23T19:17:12.959Z,3.30
2022-08-23T19:22:15.335Z,4.23
2022-08-23T19:27:17.247Z,3.57
2022-08-23T19:32:19.727Z,3.00
2022-08-23T19:37:22.772Z,3.00
2022-08-23T19:42:27.835Z,2.60
2022-08-23T19:47:30.330Z,3.77
2022-08-23T19:52:34.835Z,2.43
2022-08-23T19:57:38.087Z,7.13
2022-08-23T20:02:40.892Z,8.20
2022-08-23T20:07:43.844Z,6.10
2022-08-23T20:12:46.128Z,4.27
2022-08-23T20:17:48.010Z,6.37
2022-08-23T20:23:08.375Z,5.43
2022-08-23T20:28:10.767Z,3.07
2022-08-23T20:33:13.000Z,3.70
2022-08-23T20:38:24.544Z,3.50
2022-08-23T20:43:38.942Z,3.13
2022-08-23T20:48:41.427Z,2.83
2022-08-23T20:53:43.352Z,3.47
2022-08-23T20:58:45.662Z,2.93
2022-08-23T21:03:49.385Z,2.90
2022-08-23T21:08:54.035Z,2.80
2022-08-23T21:13:57.255Z,2.67
2022-08-23T21:18:59.220Z,3.17
2022-08-23T21:24:03.033Z,3.23
2022-08-23T21:29:07.606Z,3.70
2022-08-23T21:34:09.774Z,4.73
2022-08-23T21:39:11.714Z,3.33
2022-08-23T21:44:20.114Z,3.37
2022-08-23T21:49:23.171Z,3.20
2022-08-23T21:54:25.013Z,3.50
2022-08-23T21:59:27.033Z,3.63
2022-08-23T22:04:30.073Z,3.40
2022-08-23T22:09:32.400Z,3.77
2022-08-23T22:14:34.729Z,4.30
2022-08-23T22:19:36.977Z,4.20
2022-08-23T22:24:38.795Z,4.83
2022-08-23T22:29:41.666Z,5.23
2022-08-23T22:34:47.515Z,4.63
2022-08-23T22:39:50.329Z,6.03
2022-08-23T22:44:55.724Z,5.17
2022-08-23T22:49:57.947Z,4.80
2022-08-23T22:55:00.237Z,4.30
2022-08-23T23:00:02.270Z,3.80
2022-08-23T23:05:04.632Z,4.20
2022-08-23T23:10:06.859Z,4.10
2022-08-23T23:15:09.379Z,4.10
2022-08-23T23:20:30.055Z,4.10
2022-08-23T23:25:32.563Z,4.00
2022-08-23T23:30:36.777Z,4.20
2022-08-23T23:35:39.165Z,4.07
2022-08-23T23:40:41.420Z,3.87
2022-08-23T23:45:44.299Z,5.13
2022-08-23T23:50:47.013Z,6.20
2022-08-23T23:55:49.076Z,4.83
